createdAt,value
2022-08-10T00:00:51.660Z,28.27336
2022-08-10T00:05:53.472Z,29.04084
2022-08-10T00:10:55.152Z,27.87628
2022-08-10T00:15:56.754Z,26.62661
2022-08-10T00:20:58.495Z,27.38931
2022-08-10T00:26:00.118Z,28.00748
2022-08-10T00:31:01.797Z,28.6158
2022-08-10T00:36:03.464Z,28.51637
2022-08-10T00:41:05.076Z,27.22349
2022-08-10T00:46:07.687Z,26.99128
2022-08-10T00:51:09.303Z,26.72127
2022-08-10T00:57:14.443Z,26.49764
2022-08-10T01:02:20.081Z,25.68952
2022-08-10T01:07:21.696Z,26.41696
2022-08-10T01:12:38.561Z,26.57165
2022-08-10T01:17:50.535Z,27.16472
2022-08-10T01:22:52.985Z,26.28418
2022-08-10T01:27:54.571Z,26.97603
2022-08-10T01:32:56.198Z,27.52336
2022-08-10T01:37:57.812Z,27.23524
2022-08-10T01:43:07.415Z,27.62025
2022-08-10T01:48:16.387Z,26.14568
2022-08-10T01:53:18.715Z,27.3334
2022-08-10T01:58:20.351Z,26.77781
2022-08-10T02:03:21.965Z,25.42333
2022-08-10T02:08:23.600Z,25.74543
2022-08-10T02:13:25.249Z,25.93158
2022-08-10T02:18:26.950Z,25.02023
2022-08-10T02:23:28.620Z,25.55103
2022-08-10T02:28:31.268Z,25.74416
2022-08-10T02:33:33.019Z,26.02306
2022-08-10T02:38:59.203Z,25.55611
2022-08-10T02:45:20.482Z,26.06912
2022-08-10T02:50:26.853Z,26.03005
2022-08-10T02:55:32.412Z,25.58978
2022-08-10T03:00:34.282Z,24.86871
2022-08-10T03:05:35.974Z,25.35059
2022-08-10T03:10:39.643Z,25.53483
2022-08-10T03:15:41.643Z,25.84073
2022-08-10T03:20:43.264Z,25.48464
2022-08-10T03:25:52.998Z,25.11267
2022-08-10T03:30:56.247Z,25.09329
2022-08-10T03:36:40.527Z,25.17302
2022-08-10T03:41:47.817Z,25.95858
2022-08-10T03:46:55.323Z,25.78133
2022-08-10T03:51:56.935Z,24.44179
2022-08-10T03:57:00.405Z,26.01766
2022-08-10T04:02:44.857Z,24.92366
2022-08-10T04:07:49.825Z,25.6711
2022-08-10T04:12:51.495Z,24.47673
2022-08-10T04:17:59.446Z,24.88173
2022-08-10T04:23:07.139Z,25.22512
2022-08-10T04:28:08.787Z,24.93351
2022-08-10T04:33:10.422Z,24.06283
2022-08-10T04:38:12.020Z,24.30901
2022-08-10T04:43:13.771Z,24.59775
2022-08-10T04:48:43.135Z,24.17115
2022-08-10T04:54:05.454Z,23.79506
2022-08-10T04:59:08.631Z,22.63247
2022-08-10T05:04:38.540Z,23.19693
2022-08-10T05:10:04.751Z,24.59553
2022-08-10T05:15:07.659Z,23.29635
2022-08-10T05:20:09.313Z,24.19116
2022-08-10T05:25:11.117Z,24.24739
2022-08-10T05:30:13.575Z,23.95038
2022-08-10T05:35:15.415Z,23.31414
2022-08-10T05:40:17.194Z,23.62829
2022-08-10T05:45:18.766Z,23.81316
2022-08-10T05:50:20.400Z,23.88844
2022-08-10T05:55:22.014Z,23.91703
2022-08-10T06:00:36.826Z,23.6842
2022-08-10T06:05:40.904Z,22.91994
2022-08-10T06:12:23.156Z,23.02858
2022-08-10T06:17:28.038Z,23.30016
2022-08-10T06:22:29.689Z,22.966
2022-08-10T06:27:34.869Z,23.20455
2022-08-10T06:32:36.730Z,22.68774
2022-08-10T06:37:38.553Z,22.98569
2022-08-10T06:42:40.194Z,23.05526
2022-08-10T06:47:41.989Z,23.27221
2022-08-10T06:52:43.591Z,23.05081
2022-08-10T06:57:45.252Z,23.27157
2022-08-10T07:03:02.018Z,22.92947
2022-08-10T07:08:08.967Z,22.4187
2022-08-10T07:13:10.612Z,22.50351
2022-08-10T07:18:12.235Z,22.82846
2022-08-10T07:23:55.982Z,22.31261
2022-08-10T07:29:00.949Z,22.17189
2022-08-10T07:34:02.544Z,21.88347
2022-08-10T07:39:04.146Z,22.42188
2022-08-10T07:44:05.987Z,21.88411
2022-08-10T07:49:17.023Z,21.52518
2022-08-10T07:54:21.349Z,22.4133
2022-08-10T07:59:23.000Z,22.18936
2022-08-10T08:04:24.566Z,22.43172
2022-08-10T08:09:26.184Z,21.50358
2022-08-10T08:14:27.810Z,21.79962
2022-08-10T08:19:37.907Z,21.97241
2022-08-10T08:24:47.708Z,22.11472
2022-08-10T08:29:49.315Z,21.87267
2022-08-10T08:34:50.950Z,21.90317
2022-08-10T08:39:53.748Z,21.71703
2022-08-10T08:44:55.403Z,21.83456
2022-08-10T08:50:08.780Z,22.24781
2022-08-10T08:56:04.155Z,21.90539
2022-08-10T09:01:08.645Z,21.91174
2022-08-10T09:06:10.290Z,21.78977
2022-08-10T09:11:11.877Z,21.82598
2022-08-10T09:16:13.563Z,20.90864
2022-08-10T09:21:15.148Z,20.39502
2022-08-10T09:26:16.835Z,21.24947
2022-08-10T09:31:22.508Z,21.71354
2022-08-10T09:36:32.156Z,21.43338
2022-08-10T09:41:35.802Z,20.87815
2022-08-10T09:46:37.471Z,21.27138
2022-08-10T09:51:45.896Z,21.86378
2022-08-10T09:56:48.683Z,21.36127
2022-08-10T10:02:02.959Z,19.65748
2022-08-10T10:07:05.855Z,19.31316
2022-08-10T10:12:09.831Z,20.09867
2022-08-10T10:17:11.847Z,20.86957
2022-08-10T10:22:13.474Z,21.29393
2022-08-10T10:27:16.128Z,21.17069
2022-08-10T10:32:18.465Z,21.50294
2022-08-10T10:37:20.092Z,21.6157
2022-08-10T10:43:01.787Z,21.46387
2022-08-10T10:48:03.522Z,21.12368
2022-08-10T10:53:05.253Z,21.38192
2022-08-10T10:58:06.885Z,21.71862
2022-08-10T11:03:08.507Z,20.72409
2022-08-10T11:08:14.470Z,20.48205
2022-08-10T11:14:27.427Z,21.33427
2022-08-10T11:20:00.450Z,21.20754
2022-08-10T11:25:04.775Z,20.74887
2022-08-10T11:30:06.376Z,20.9188
2022-08-10T11:35:11.437Z,21.00838
2022-08-10T11:40:14.139Z,21.05698
2022-08-10T11:45:15.909Z,20.97916
2022-08-10T11:50:17.505Z,20.85178
2022-08-10T11:55:19.227Z,20.5243
2022-08-10T12:00:20.854Z,19.91158
2022-08-10T12:05:23.771Z,20.28321
2022-08-10T12:10:44.895Z,20.436
2022-08-10T12:15:46.525Z,20.02847
2022-08-10T12:20:48.338Z,19.4723
2022-08-10T12:25:56.055Z,19.97987
2022-08-10T12:30:59.948Z,20.59386
2022-08-10T12:36:18.044Z,20.99758
2022-08-10T12:41:41.636Z,20.98074
2022-08-10T12:46:46.736Z,20.79588
2022-08-10T12:51:49.844Z,20.74792
2022-08-10T12:56:51.530Z,20.81875
2022-08-10T13:02:09.653Z,21.06269
2022-08-10T13:08:05.300Z,20.24256
2022-08-10T13:13:27.922Z,20.62372
2022-08-10T13:18:29.552Z,21.03315
2022-08-10T13:23:31.214Z,20.85369
2022-08-10T13:28:37.300Z,20.0542
2022-08-10T13:34:41.189Z,20.65866
2022-08-10T13:39:58.929Z,21.26694
2022-08-10T13:45:02.127Z,19.1553
2022-08-10T13:50:03.773Z,20.45855
2022-08-10T13:55:06.724Z,20.51382
2022-08-10T14:00:37.332Z,20.36294
2022-08-10T14:05:39.807Z,20.11805
2022-08-10T14:11:09.843Z,20.17808
2022-08-10T14:16:13.749Z,19.53328
2022-08-10T14:21:15.357Z,20.24478
2022-08-10T14:26:16.924Z,19.40655
2022-08-10T14:31:21.809Z,19.45832
2022-08-10T14:36:24.631Z,20.30608
2022-08-10T14:42:03.074Z,19.48564
2022-08-10T14:47:52.560Z,19.18579
2022-08-10T14:52:56.679Z,20.02974
2022-08-10T14:58:20.124Z,20.15267
2022-08-10T15:03:59.379Z,19.01237
2022-08-10T15:09:04.299Z,17.83524
2022-08-10T15:14:34.224Z,20.57004
2022-08-10T15:20:03.459Z,21.16116
2022-08-10T15:25:06.681Z,20.45315
2022-08-10T15:30:21.449Z,19.74228
2022-08-10T15:35:25.659Z,20.88736
2022-08-10T15:40:30.757Z,21.37843
2022-08-10T15:45:34.076Z,21.13385
2022-08-10T15:50:35.691Z,21.21484
2022-08-10T15:55:45.530Z,21.67224
2022-08-10T16:00:47.477Z,20.78031
2022-08-10T16:06:02.346Z,21.85234
2022-08-10T16:11:04.935Z,19.85409
2022-08-10T16:16:06.600Z,21.68812
2022-08-10T16:21:08.411Z,21.18626
2022-08-10T16:26:14.713Z,20.76412
2022-08-10T16:31:17.288Z,21.43592
2022-08-10T16:36:18.937Z,21.52136
2022-08-10T16:42:03.940Z,21.66081
2022-08-10T16:47:07.493Z,22.34659
2022-08-10T16:52:09.097Z,21.64683
2022-08-10T16:57:10.721Z,21.9038
2022-08-10T17:02:12.442Z,22.21223
2022-08-10T17:07:14.031Z,21.57123
2022-08-10T17:12:15.651Z,20.8178
2022-08-10T17:17:17.292Z,20.05706
2022-08-10T17:22:18.905Z,21.57314
2022-08-10T17:28:04.947Z,20.18443
2022-08-10T17:33:11.226Z,21.73387
2022-08-10T17:38:12.850Z,21.88125
2022-08-10T17:43:14.458Z,22.55846
2022-08-10T17:49:00.449Z,22.00418
2022-08-10T17:54:02.114Z,22.02324
2022-08-10T17:59:07.196Z,24.15463
2022-08-10T18:04:11.634Z,24.96432
2022-08-10T18:09:13.283Z,25.7359
2022-08-10T18:14:14.898Z,25.42365
2022-08-10T18:19:16.542Z,25.82961
2022-08-10T18:24:18.188Z,22.98506
2022-08-10T18:29:19.808Z,22.9174
2022-08-10T18:34:21.419Z,22.81131
2022-08-10T18:39:23.137Z,23.41801
2022-08-10T18:44:24.802Z,23.02508
2022-08-10T18:49:27.914Z,21.75515
2022-08-10T18:54:39.029Z,22.65788
2022-08-10T19:00:07.609Z,24.63778
2022-08-10T19:05:31.415Z,24.18703
2022-08-10T19:10:33.994Z,24.57742
2022-08-10T19:15:35.959Z,25.75433
2022-08-10T19:20:37.680Z,26.26512
2022-08-10T19:26:37.871Z,26.01607
2022-08-10T19:31:47.013Z,25.36425
2022-08-10T19:36:48.622Z,26.74351
2022-08-10T19:41:54.298Z,27.00049
2022-08-10T19:46:56.371Z,26.48589
2022-08-10T19:51:58.016Z,25.80674
2022-08-10T19:57:02.130Z,27.37946
2022-08-10T20:02:04.099Z,27.16599
2022-08-10T20:07:05.789Z,25.34582
2022-08-10T20:12:07.426Z,27.26352
2022-08-10T20:17:09.061Z,27.87914
2022-08-10T20:22:10.810Z,28.47794
2022-08-10T20:27:57.826Z,27.77177
2022-08-10T20:33:02.618Z,28.67679
2022-08-10T20:38:04.840Z,29.18951
2022-08-10T20:43:06.913Z,29.22699
2022-08-10T20:48:08.580Z,29.75782
2022-08-10T20:53:10.194Z,29.6406
2022-08-10T20:58:12.080Z,27.21682
2022-08-10T21:03:15.916Z,28.05672
2022-08-10T21:08:23.085Z,28.39916
2022-08-10T21:13:24.692Z,29.84041
2022-08-10T21:18:26.413Z,29.51035
2022-08-10T21:25:42.236Z,30.23654
2022-08-10T21:30:44.202Z,29.54466
2022-08-10T21:35:45.831Z,29.78926
2022-08-10T21:41:17.401Z,28.70666
2022-08-10T21:46:21.052Z,26.96396
2022-08-10T21:51:24.640Z,28.08276
2022-08-10T21:57:02.777Z,26.19555
2022-08-10T22:02:04.589Z,27.26796
2022-08-10T22:07:06.252Z,27.49191
2022-08-10T22:12:10.890Z,27.94553
2022-08-10T22:18:10.153Z,26.68125
2022-08-10T22:31:26.095Z,27.93823
2022-08-10T22:36:31.215Z,27.56466
2022-08-10T22:41:32.824Z,28.91981
2022-08-10T22:46:34.421Z,29.08944
2022-08-10T22:51:36.019Z,29.01892
2022-08-10T22:56:37.632Z,29.10914
2022-08-10T23:01:39.251Z,27.71205
2022-08-10T23:06:42.418Z,29.01066
2022-08-10T23:11:44.030Z,30.23654
2022-08-10T23:16:45.633Z,29.42712
2022-08-10T23:22:03.423Z,29.5634
2022-08-10T23:27:10.273Z,30.95988
2022-08-10T23:32:15.031Z,31.8157
2022-08-10T23:37:16.633Z,31.07615
2022-08-10T23:42:18.227Z,31.08727
2022-08-10T23:47:19.997Z,30.75308
2022-08-10T23:52:21.631Z,30.64126
2022-08-10T23:57:23.249Z,29.14535
